FDX32 LFPG-EDDF
Flight info
| Callsign | FDX32 |
|---|---|
| Flight time | 0h 51m |
| Altitude | 21000 |
| Route | RANUX DCT VALEK/N0441F230 DCT LIPNI UN858 LIMGO Z111 RAMOB IMCOM1D |
| Aircraft | B77L/H-SDE1E2E3FGHIJ2J3J4J5M1RWXY/LB1D1 |
Departure
| Time | 2026-05-08 15:01 |
|---|---|
| Airport | Charles de Gaulle International Airport (LFPG) |
Arrival
| Time | 2026-05-08 15:52 |
|---|---|
| Airport | Frankfurt Main Airport (EDDF) |
| Time | Latitude | Longitude | Altitude | Speed | Heading |
|---|---|---|---|---|---|
| 2026-05-08 14:05 | 49.01082 | 2.50281 | 359 ft | 0 kts | 266° |
| 2026-05-08 14:49 | 49.01083 | 2.50301 | 365 ft | 4 kts | 259° |
| 2026-05-08 14:49 | 49.01091 | 2.50339 | 365 ft | 4 kts | 244° |
| 2026-05-08 14:50 | 49.01100 | 2.50375 | 366 ft | 2 kts | 266° |
| 2026-05-08 14:50 | 49.01098 | 2.50409 | 365 ft | 4 kts | 312° |
| 2026-05-08 14:50 | 49.01077 | 2.50422 | 366 ft | 4 kts | 1° |
| 2026-05-08 14:50 | 49.01051 | 2.50421 | 362 ft | 2 kts | 355° |
| 2026-05-08 14:51 | 49.01048 | 2.50421 | 362 ft | 0 kts | 355° |
| 2026-05-08 14:55 | 49.01054 | 2.50421 | 360 ft | 3 kts | 355° |
| 2026-05-08 14:55 | 49.01106 | 2.50414 | 363 ft | 6 kts | 355° |
| 2026-05-08 14:55 | 49.01176 | 2.50404 | 363 ft | 11 kts | 355° |
| 2026-05-08 14:55 | 49.01241 | 2.50398 | 365 ft | 6 kts | 356° |
| 2026-05-08 14:56 | 49.01312 | 2.50390 | 360 ft | 14 kts | 355° |
| 2026-05-08 14:56 | 49.01403 | 2.50396 | 363 ft | 14 kts | 16° |
| 2026-05-08 14:56 | 49.01507 | 2.50429 | 365 ft | 13 kts | 2° |
| 2026-05-08 14:56 | 49.01594 | 2.50457 | 363 ft | 14 kts | 43° |
| 2026-05-08 14:57 | 49.01619 | 2.50606 | 361 ft | 17 kts | 83° |
| 2026-05-08 14:57 | 49.01631 | 2.50813 | 363 ft | 20 kts | 86° |
| 2026-05-08 14:57 | 49.01642 | 2.51028 | 365 ft | 20 kts | 85° |
| 2026-05-08 14:57 | 49.01655 | 2.51207 | 360 ft | 15 kts | 76° |
| 2026-05-08 14:58 | 49.01736 | 2.51269 | 362 ft | 16 kts | 0° |
| 2026-05-08 14:58 | 49.01798 | 2.51268 | 359 ft | 10 kts | 356° |
| 2026-05-08 14:58 | 49.01891 | 2.51256 | 365 ft | 17 kts | 352° |
| 2026-05-08 14:58 | 49.01939 | 2.51251 | 362 ft | 0 kts | 5° |
| 2026-05-08 14:59 | 49.01941 | 2.51251 | 362 ft | 2 kts | 5° |
| 2026-05-08 14:59 | 49.02039 | 2.51359 | 366 ft | 16 kts | 56° |
| 2026-05-08 14:59 | 49.02065 | 2.51431 | 365 ft | 0 kts | 76° |
| 2026-05-08 15:00 | 49.02069 | 2.51478 | 361 ft | 17 kts | 85° |
| 2026-05-08 15:00 | 49.02102 | 2.52054 | 364 ft | 110 kts | 85° |
| 2026-05-08 15:00 | 49.02182 | 2.53790 | 509 ft | 202 kts | 86° |
| 2026-05-08 15:01 | 49.02291 | 2.55923 | 1851 ft | 192 kts | 85° |
| 2026-05-08 15:01 | 49.02406 | 2.57863 | 2927 ft | 188 kts | 85° |
| 2026-05-08 15:01 | 49.02505 | 2.60032 | 3147 ft | 221 kts | 86° |
| 2026-05-08 15:01 | 49.02620 | 2.62425 | 3842 ft | 227 kts | 85° |
| 2026-05-08 15:02 | 49.02760 | 2.64874 | 4556 ft | 237 kts | 85° |
| 2026-05-08 15:02 | 49.02901 | 2.67411 | 5277 ft | 245 kts | 85° |
| 2026-05-08 15:02 | 49.03046 | 2.70030 | 5995 ft | 252 kts | 85° |
| 2026-05-08 15:02 | 49.03190 | 2.72729 | 6795 ft | 256 kts | 85° |
| 2026-05-08 15:03 | 49.03325 | 2.75446 | 7612 ft | 259 kts | 85° |
| 2026-05-08 15:03 | 49.03459 | 2.78198 | 8409 ft | 262 kts | 86° |
| 2026-05-08 15:03 | 49.03594 | 2.80989 | 9192 ft | 265 kts | 86° |
| 2026-05-08 15:03 | 49.03732 | 2.83833 | 9859 ft | 274 kts | 86° |
| 2026-05-08 15:04 | 49.03873 | 2.86795 | 10456 ft | 289 kts | 86° |
| 2026-05-08 15:04 | 49.04025 | 2.89998 | 10706 ft | 318 kts | 86° |
| 2026-05-08 15:04 | 49.04193 | 2.93507 | 10928 ft | 346 kts | 85° |
| 2026-05-08 15:04 | 49.04438 | 2.97265 | 11516 ft | 362 kts | 83° |
| 2026-05-08 15:05 | 49.04729 | 3.01116 | 12397 ft | 370 kts | 83° |
| 2026-05-08 15:05 | 49.05031 | 3.05036 | 13417 ft | 374 kts | 83° |
| 2026-05-08 15:05 | 49.05333 | 3.09004 | 14394 ft | 379 kts | 83° |
| 2026-05-08 15:05 | 49.05632 | 3.13015 | 15319 ft | 385 kts | 83° |
| 2026-05-08 15:06 | 49.05932 | 3.17098 | 16187 ft | 390 kts | 83° |
| 2026-05-08 15:06 | 49.06231 | 3.21230 | 17057 ft | 395 kts | 84° |
| 2026-05-08 15:06 | 49.06532 | 3.25422 | 17898 ft | 400 kts | 84° |
| 2026-05-08 15:06 | 49.06834 | 3.29664 | 18707 ft | 405 kts | 84° |
| 2026-05-08 15:07 | 49.07137 | 3.33948 | 19498 ft | 409 kts | 84° |
| 2026-05-08 15:07 | 49.07444 | 3.38296 | 20250 ft | 414 kts | 84° |
| 2026-05-08 15:07 | 49.07752 | 3.42700 | 20983 ft | 419 kts | 84° |
| 2026-05-08 15:07 | 49.08062 | 3.47132 | 21691 ft | 424 kts | 84° |
| 2026-05-08 15:08 | 49.08374 | 3.51623 | 22403 ft | 428 kts | 84° |
| 2026-05-08 15:08 | 49.08580 | 3.54613 | 22837 ft | 429 kts | 84° |
| 2026-05-08 15:08 | 49.09002 | 3.60779 | 22998 ft | 445 kts | 84° |
| 2026-05-08 15:08 | 49.09322 | 3.65487 | 23010 ft | 447 kts | 84° |
| 2026-05-08 15:09 | 49.09640 | 3.70191 | 23007 ft | 447 kts | 84° |
| 2026-05-08 15:09 | 49.09956 | 3.74908 | 23000 ft | 446 kts | 84° |
| 2026-05-08 15:09 | 49.10271 | 3.79617 | 22999 ft | 445 kts | 84° |
| 2026-05-08 15:09 | 49.10583 | 3.84318 | 22998 ft | 445 kts | 84° |
| 2026-05-08 15:10 | 49.10889 | 3.88957 | 23001 ft | 445 kts | 84° |
| 2026-05-08 15:10 | 49.11205 | 3.93651 | 23003 ft | 445 kts | 83° |
| 2026-05-08 15:10 | 49.11847 | 3.98268 | 22995 ft | 446 kts | 72° |
| 2026-05-08 15:10 | 49.12986 | 4.02476 | 23004 ft | 446 kts | 63° |
| 2026-05-08 15:11 | 49.14581 | 4.06535 | 23005 ft | 446 kts | 55° |
| 2026-05-08 15:11 | 49.16350 | 4.10423 | 23003 ft | 447 kts | 55° |
| 2026-05-08 15:11 | 49.18127 | 4.14317 | 23002 ft | 447 kts | 55° |
| 2026-05-08 15:11 | 49.19902 | 4.18223 | 23001 ft | 447 kts | 55° |
| 2026-05-08 15:12 | 49.21667 | 4.22131 | 23001 ft | 447 kts | 55° |
| 2026-05-08 15:12 | 49.23427 | 4.26056 | 23001 ft | 447 kts | 56° |
| 2026-05-08 15:12 | 49.25179 | 4.29982 | 23001 ft | 447 kts | 56° |
| 2026-05-08 15:12 | 49.26924 | 4.33909 | 23000 ft | 446 kts | 56° |
| 2026-05-08 15:13 | 49.28668 | 4.37844 | 23001 ft | 446 kts | 56° |
| 2026-05-08 15:13 | 49.30404 | 4.41770 | 23001 ft | 446 kts | 56° |
| 2026-05-08 15:13 | 49.32144 | 4.45710 | 23001 ft | 446 kts | 56° |
| 2026-05-08 15:13 | 49.33885 | 4.49660 | 23000 ft | 446 kts | 56° |
| 2026-05-08 15:14 | 49.35618 | 4.53597 | 23002 ft | 446 kts | 56° |
| 2026-05-08 15:14 | 49.37351 | 4.57538 | 23001 ft | 446 kts | 56° |
| 2026-05-08 15:14 | 49.39083 | 4.61482 | 23001 ft | 446 kts | 56° |
| 2026-05-08 15:14 | 49.40814 | 4.65431 | 23002 ft | 446 kts | 56° |
| 2026-05-08 15:15 | 49.42545 | 4.69383 | 23001 ft | 446 kts | 56° |
| 2026-05-08 15:15 | 49.44273 | 4.73336 | 23001 ft | 446 kts | 56° |
| 2026-05-08 15:15 | 49.45997 | 4.77287 | 23001 ft | 446 kts | 56° |
| 2026-05-08 15:15 | 49.47722 | 4.81244 | 23001 ft | 446 kts | 56° |
| 2026-05-08 15:16 | 49.49450 | 4.85214 | 23002 ft | 446 kts | 56° |
| 2026-05-08 15:16 | 49.51174 | 4.89183 | 23001 ft | 446 kts | 56° |
| 2026-05-08 15:16 | 49.52895 | 4.93147 | 23000 ft | 446 kts | 56° |
| 2026-05-08 15:16 | 49.54620 | 4.97130 | 23001 ft | 446 kts | 56° |
| 2026-05-08 15:17 | 49.56283 | 5.00974 | 23002 ft | 446 kts | 56° |
| 2026-05-08 15:17 | 49.58004 | 5.04957 | 23001 ft | 447 kts | 56° |
| 2026-05-08 15:17 | 49.59721 | 5.08939 | 23003 ft | 446 kts | 56° |
| 2026-05-08 15:17 | 49.61439 | 5.12927 | 23003 ft | 446 kts | 56° |
| 2026-05-08 15:18 | 49.63155 | 5.16919 | 23002 ft | 446 kts | 56° |
| 2026-05-08 15:18 | 49.64868 | 5.20906 | 23001 ft | 446 kts | 56° |
| 2026-05-08 15:18 | 49.66087 | 5.23749 | 23001 ft | 446 kts | 56° |
| 2026-05-08 15:18 | 49.67799 | 5.27747 | 23000 ft | 446 kts | 56° |
| 2026-05-08 15:19 | 49.69511 | 5.31750 | 23001 ft | 447 kts | 56° |
| 2026-05-08 15:19 | 49.71221 | 5.35754 | 23002 ft | 447 kts | 57° |
| 2026-05-08 15:19 | 49.72927 | 5.39756 | 23001 ft | 447 kts | 57° |
| 2026-05-08 15:19 | 49.74637 | 5.43774 | 23001 ft | 447 kts | 57° |
| 2026-05-08 15:20 | 49.76344 | 5.47790 | 23002 ft | 447 kts | 57° |
| 2026-05-08 15:20 | 49.78052 | 5.51812 | 23001 ft | 447 kts | 57° |
| 2026-05-08 15:20 | 49.79759 | 5.55842 | 23002 ft | 448 kts | 57° |
| 2026-05-08 15:20 | 49.81466 | 5.59876 | 23001 ft | 448 kts | 57° |
| 2026-05-08 15:21 | 49.83170 | 5.63908 | 23001 ft | 448 kts | 57° |
| 2026-05-08 15:21 | 49.84874 | 5.67949 | 23002 ft | 448 kts | 57° |
| 2026-05-08 15:21 | 49.86579 | 5.71997 | 23002 ft | 448 kts | 57° |
| 2026-05-08 15:21 | 49.88277 | 5.76034 | 23002 ft | 448 kts | 57° |
| 2026-05-08 15:22 | 49.89956 | 5.80032 | 23002 ft | 448 kts | 57° |
| 2026-05-08 15:22 | 49.91652 | 5.84077 | 23001 ft | 448 kts | 57° |
| 2026-05-08 15:22 | 49.93346 | 5.88124 | 23000 ft | 447 kts | 57° |
| 2026-05-08 15:22 | 49.94955 | 5.91974 | 23000 ft | 447 kts | 57° |
| 2026-05-08 15:23 | 49.96651 | 5.96037 | 23002 ft | 447 kts | 57° |
| 2026-05-08 15:23 | 49.98329 | 6.00065 | 23002 ft | 447 kts | 57° |
| 2026-05-08 15:23 | 49.99974 | 6.04017 | 23001 ft | 447 kts | 57° |
| 2026-05-08 15:23 | 50.01660 | 6.08074 | 23000 ft | 447 kts | 57° |
| 2026-05-08 15:24 | 50.03345 | 6.12136 | 23001 ft | 447 kts | 57° |
| 2026-05-08 15:24 | 50.05027 | 6.16198 | 23003 ft | 447 kts | 57° |
| 2026-05-08 15:24 | 50.06708 | 6.20262 | 23001 ft | 447 kts | 57° |
| 2026-05-08 15:24 | 50.08388 | 6.24332 | 22999 ft | 447 kts | 57° |
| 2026-05-08 15:25 | 50.10068 | 6.28405 | 23001 ft | 447 kts | 57° |
| 2026-05-08 15:25 | 50.11747 | 6.32485 | 23003 ft | 447 kts | 57° |
| 2026-05-08 15:25 | 50.13427 | 6.36572 | 23002 ft | 447 kts | 57° |
| 2026-05-08 15:25 | 50.15103 | 6.40658 | 23001 ft | 447 kts | 57° |
| 2026-05-08 15:26 | 50.16776 | 6.44742 | 23001 ft | 448 kts | 57° |
| 2026-05-08 15:26 | 50.18452 | 6.48839 | 23001 ft | 448 kts | 57° |
| 2026-05-08 15:26 | 50.20124 | 6.52931 | 23000 ft | 448 kts | 57° |
| 2026-05-08 15:26 | 50.21798 | 6.57036 | 23002 ft | 448 kts | 57° |
| 2026-05-08 15:27 | 50.23466 | 6.61134 | 23001 ft | 448 kts | 57° |
| 2026-05-08 15:27 | 50.25136 | 6.65242 | 23002 ft | 448 kts | 57° |
| 2026-05-08 15:27 | 50.26804 | 6.69354 | 23002 ft | 447 kts | 57° |
| 2026-05-08 15:27 | 50.28469 | 6.73460 | 23001 ft | 448 kts | 58° |
| 2026-05-08 15:28 | 50.30133 | 6.77572 | 23001 ft | 447 kts | 58° |
| 2026-05-08 15:28 | 50.31621 | 6.81792 | 22990 ft | 442 kts | 69° |
| 2026-05-08 15:28 | 50.32223 | 6.86500 | 23008 ft | 444 kts | 88° |
| 2026-05-08 15:28 | 50.31972 | 6.91318 | 23007 ft | 447 kts | 102° |
| 2026-05-08 15:29 | 50.30919 | 6.95871 | 23008 ft | 447 kts | 116° |
| 2026-05-08 15:29 | 50.29532 | 7.00159 | 23008 ft | 449 kts | 116° |
| 2026-05-08 15:29 | 50.28170 | 7.04484 | 23006 ft | 450 kts | 116° |
| 2026-05-08 15:29 | 50.26826 | 7.08908 | 23004 ft | 450 kts | 115° |
| 2026-05-08 15:30 | 50.25502 | 7.13335 | 23001 ft | 450 kts | 115° |
| 2026-05-08 15:30 | 50.24180 | 7.17769 | 22999 ft | 449 kts | 115° |
| 2026-05-08 15:30 | 50.22858 | 7.22191 | 23000 ft | 448 kts | 115° |
| 2026-05-08 15:30 | 50.21538 | 7.26589 | 23001 ft | 447 kts | 115° |
| 2026-05-08 15:31 | 50.20215 | 7.30979 | 23000 ft | 446 kts | 115° |
| 2026-05-08 15:31 | 50.18944 | 7.35391 | 23001 ft | 445 kts | 112° |
| 2026-05-08 15:31 | 50.17838 | 7.39885 | 22952 ft | 441 kts | 110° |
| 2026-05-08 15:31 | 50.16815 | 7.44348 | 22736 ft | 433 kts | 109° |
| 2026-05-08 15:32 | 50.15816 | 7.48740 | 22560 ft | 426 kts | 109° |
| 2026-05-08 15:32 | 50.14815 | 7.53055 | 22321 ft | 421 kts | 110° |
| 2026-05-08 15:32 | 50.13803 | 7.57326 | 22003 ft | 419 kts | 110° |
| 2026-05-08 15:32 | 50.12784 | 7.61575 | 21636 ft | 418 kts | 110° |
| 2026-05-08 15:33 | 50.11762 | 7.65809 | 21269 ft | 417 kts | 110° |
| 2026-05-08 15:33 | 50.10767 | 7.70024 | 20972 ft | 414 kts | 108° |
| 2026-05-08 15:33 | 50.09921 | 7.74299 | 20693 ft | 411 kts | 106° |
| 2026-05-08 15:33 | 50.09129 | 7.78566 | 20379 ft | 409 kts | 106° |
| 2026-05-08 15:34 | 50.08373 | 7.82804 | 19998 ft | 403 kts | 101° |
| 2026-05-08 15:34 | 50.08256 | 7.87180 | 19454 ft | 408 kts | 82° |
| 2026-05-08 15:34 | 50.09019 | 7.91383 | 19164 ft | 402 kts | 69° |
| 2026-05-08 15:34 | 50.10048 | 7.95426 | 18813 ft | 401 kts | 68° |
| 2026-05-08 15:35 | 50.11077 | 7.99462 | 18514 ft | 400 kts | 68° |
| 2026-05-08 15:35 | 50.12054 | 8.03340 | 18251 ft | 398 kts | 69° |
| 2026-05-08 15:35 | 50.13054 | 8.07375 | 17975 ft | 397 kts | 69° |
| 2026-05-08 15:35 | 50.14037 | 8.11386 | 17726 ft | 395 kts | 69° |
| 2026-05-08 15:36 | 50.15010 | 8.15383 | 17460 ft | 393 kts | 69° |
| 2026-05-08 15:36 | 50.15648 | 8.18014 | 17278 ft | 392 kts | 69° |
| 2026-05-08 15:36 | 50.16936 | 8.23331 | 16930 ft | 391 kts | 69° |
| 2026-05-08 15:36 | 50.17878 | 8.27236 | 16677 ft | 387 kts | 70° |
| 2026-05-08 15:37 | 50.18438 | 8.31292 | 16230 ft | 386 kts | 89° |
| 2026-05-08 15:37 | 50.18001 | 8.35406 | 15885 ft | 387 kts | 110° |
| 2026-05-08 15:37 | 50.16698 | 8.39042 | 15712 ft | 384 kts | 129° |
| 2026-05-08 15:37 | 50.14787 | 8.41927 | 15510 ft | 381 kts | 144° |
| 2026-05-08 15:38 | 50.12427 | 8.43723 | 15247 ft | 381 kts | 166° |
| 2026-05-08 15:38 | 50.10650 | 8.44016 | 14929 ft | 382 kts | 183° |
| 2026-05-08 15:38 | 50.08109 | 8.42940 | 14426 ft | 380 kts | 208° |
| 2026-05-08 15:38 | 50.05679 | 8.39179 | 13761 ft | 370 kts | 243° |
| 2026-05-08 15:39 | 50.05034 | 8.35403 | 13253 ft | 362 kts | 269° |
| 2026-05-08 15:39 | 50.05228 | 8.32800 | 12925 ft | 355 kts | 283° |
| 2026-05-08 15:39 | 50.05786 | 8.29085 | 12450 ft | 351 kts | 280° |
| 2026-05-08 15:39 | 50.05928 | 8.24109 | 11781 ft | 347 kts | 264° |
| 2026-05-08 15:40 | 50.05656 | 8.21616 | 11443 ft | 345 kts | 257° |
| 2026-05-08 15:40 | 50.04970 | 8.18064 | 10951 ft | 342 kts | 250° |
| 2026-05-08 15:40 | 50.04161 | 8.14697 | 10414 ft | 320 kts | 249° |
| 2026-05-08 15:40 | 50.03381 | 8.11582 | 9877 ft | 298 kts | 249° |
| 2026-05-08 15:41 | 50.02650 | 8.08663 | 9363 ft | 282 kts | 249° |
| 2026-05-08 15:41 | 50.01960 | 8.05868 | 8854 ft | 273 kts | 249° |
| 2026-05-08 15:41 | 50.01285 | 8.03119 | 8357 ft | 271 kts | 249° |
| 2026-05-08 15:41 | 50.00616 | 8.00386 | 8085 ft | 271 kts | 249° |
| 2026-05-08 15:42 | 49.99874 | 7.97691 | 8008 ft | 271 kts | 237° |
| 2026-05-08 15:42 | 49.98592 | 7.95717 | 7987 ft | 254 kts | 211° |
| 2026-05-08 15:42 | 49.97186 | 7.94190 | 7992 ft | 242 kts | 217° |
| 2026-05-08 15:42 | 49.95685 | 7.93098 | 7987 ft | 240 kts | 187° |
| 2026-05-08 15:43 | 49.94031 | 7.93341 | 7881 ft | 244 kts | 158° |
| 2026-05-08 15:43 | 49.92644 | 7.94833 | 7413 ft | 246 kts | 128° |
| 2026-05-08 15:43 | 49.91867 | 7.97167 | 6886 ft | 242 kts | 108° |
| 2026-05-08 15:43 | 49.91398 | 7.99638 | 6339 ft | 236 kts | 105° |
| 2026-05-08 15:44 | 49.90995 | 8.02084 | 5775 ft | 231 kts | 99° |
| 2026-05-08 15:44 | 49.91096 | 8.04496 | 5211 ft | 229 kts | 72° |
| 2026-05-08 15:44 | 49.91646 | 8.06836 | 4721 ft | 235 kts | 70° |
| 2026-05-08 15:44 | 49.92218 | 8.09249 | 4239 ft | 240 kts | 70° |
| 2026-05-08 15:45 | 49.92788 | 8.11643 | 4043 ft | 232 kts | 70° |
| 2026-05-08 15:45 | 49.93338 | 8.13943 | 3919 ft | 220 kts | 70° |
| 2026-05-08 15:45 | 49.93852 | 8.16087 | 3894 ft | 203 kts | 70° |
| 2026-05-08 15:45 | 49.94330 | 8.18085 | 3906 ft | 195 kts | 70° |
| 2026-05-08 15:46 | 49.94802 | 8.20060 | 3918 ft | 195 kts | 70° |
| 2026-05-08 15:46 | 49.95274 | 8.22033 | 3923 ft | 195 kts | 70° |
| 2026-05-08 15:46 | 49.95746 | 8.24010 | 3926 ft | 195 kts | 70° |
| 2026-05-08 15:46 | 49.96217 | 8.25985 | 3924 ft | 195 kts | 70° |
| 2026-05-08 15:47 | 49.96692 | 8.27974 | 3691 ft | 196 kts | 70° |
| 2026-05-08 15:47 | 49.97157 | 8.29918 | 3477 ft | 189 kts | 70° |
| 2026-05-08 15:47 | 49.97603 | 8.31785 | 3254 ft | 177 kts | 70° |
| 2026-05-08 15:47 | 49.98016 | 8.33518 | 3006 ft | 168 kts | 70° |
| 2026-05-08 15:48 | 49.98846 | 8.36998 | 2526 ft | 173 kts | 70° |
| 2026-05-08 15:48 | 49.99262 | 8.38743 | 2315 ft | 172 kts | 70° |
| 2026-05-08 15:48 | 49.99677 | 8.40480 | 2072 ft | 170 kts | 70° |
| 2026-05-08 15:49 | 50.00067 | 8.42117 | 1839 ft | 152 kts | 70° |
| 2026-05-08 15:49 | 50.00417 | 8.43586 | 1645 ft | 139 kts | 70° |
| 2026-05-08 15:49 | 50.00750 | 8.44983 | 1472 ft | 138 kts | 70° |
| 2026-05-08 15:49 | 50.01084 | 8.46384 | 1303 ft | 138 kts | 70° |
| 2026-05-08 15:50 | 50.01415 | 8.47775 | 1109 ft | 137 kts | 70° |
| 2026-05-08 15:50 | 50.01744 | 8.49155 | 929 ft | 137 kts | 70° |
| 2026-05-08 15:50 | 50.02070 | 8.50533 | 744 ft | 135 kts | 70° |
| 2026-05-08 15:50 | 50.02399 | 8.51905 | 585 ft | 136 kts | 69° |
| 2026-05-08 15:51 | 50.02733 | 8.53282 | 397 ft | 136 kts | 70° |
| 2026-05-08 15:51 | 50.03043 | 8.54629 | 338 ft | 122 kts | 68° |
| 2026-05-08 15:51 | 50.03284 | 8.55641 | 352 ft | 78 kts | 70° |
| 2026-05-08 15:51 | 50.03427 | 8.56250 | 363 ft | 50 kts | 70° |
| 2026-05-08 15:52 | 50.03545 | 8.56735 | 361 ft | 46 kts | 68° |
| 2026-05-08 15:52 | 50.03588 | 8.57158 | 363 ft | 30 kts | 108° |
| 2026-05-08 15:52 | 50.03572 | 8.57219 | 366 ft | 0 kts | 114° |
| 2026-05-08 15:53 | 50.03571 | 8.57221 | 366 ft | 1 kts | 114° |
| 2026-05-08 15:53 | 50.03554 | 8.57279 | 362 ft | 11 kts | 114° |
| 2026-05-08 15:53 | 50.03496 | 8.57407 | 366 ft | 18 kts | 144° |
| 2026-05-08 15:54 | 50.03400 | 8.57352 | 365 ft | 10 kts | 251° |
| 2026-05-08 15:54 | 50.03397 | 8.57333 | 366 ft | 0 kts | 255° |
| 2026-05-08 15:54 | 50.03389 | 8.57283 | 366 ft | 11 kts | 255° |
| 2026-05-08 15:54 | 50.03354 | 8.57114 | 361 ft | 22 kts | 252° |
| 2026-05-08 15:55 | 50.03325 | 8.56994 | 363 ft | 11 kts | 250° |
| 2026-05-08 15:55 | 50.03307 | 8.56918 | 360 ft | 0 kts | 250° |
| 2026-05-08 15:55 | 50.03304 | 8.56907 | 365 ft | 5 kts | 248° |
| 2026-05-08 15:56 | 50.03258 | 8.56843 | 365 ft | 12 kts | 183° |
| 2026-05-08 15:56 | 50.03173 | 8.56880 | 365 ft | 12 kts | 158° |
| 2026-05-08 15:56 | 50.03065 | 8.56955 | 361 ft | 16 kts | 155° |
| 2026-05-08 15:56 | 50.02997 | 8.56991 | 363 ft | 11 kts | 160° |
| 2026-05-08 15:57 | 50.02948 | 8.57019 | 360 ft | 0 kts | 160° |
| 2026-05-08 15:57 | 50.02942 | 8.57022 | 366 ft | 2 kts | 160° |
| 2026-05-08 15:57 | 50.02915 | 8.57016 | 365 ft | 5 kts | 209° |
| 2026-05-08 15:58 | 50.02889 | 8.56956 | 362 ft | 8 kts | 243° |
| 2026-05-08 15:58 | 50.02878 | 8.56912 | 358 ft | 3 kts | 248° |
| 2026-05-08 15:58 | 50.02877 | 8.56910 | 358 ft | 0 kts | 248° |